Time;durP1;ratioP1;P1;durP2;ratioP2;P2;SDS_P1;SDS_P2;PMS_P1;PMS_P2;Temp;Humidity;BMP_temperature;BMP_pressure;BME280_temperature;BME280_humidity;BME280_pressure;Samples;Min_cycle;Max_cycle;Signal;HPM_P1;HPM_P2
2022/01/28 00:01:11;;;;;;;7.40;3.05;;;;;;;;;;5016502;28;100043;-73
2022/01/28 00:03:39;;;;;;;7.57;3.72;;;;;;;;;;5034348;28;100193;-74
2022/01/28 00:06:07;;;;;;;6.38;3.53;;;;;;;;;;5033729;28;100146;-75
2022/01/28 00:08:34;;;;;;;7.85;4.13;;;;;;;;;;4997955;28;102517;-74
2022/01/28 00:11:01;;;;;;;8.63;3.78;;;;;;;;;;5034390;28;100055;-74
2022/01/28 00:13:35;;;;;;;8.18;3.75;;;;;;;;;;5034284;28;100000;-73
2022/01/28 00:40:46;;;;;;;6.53;3.90;;;;;;;;;;5011260;27;100279;-74
2022/01/28 00:48:35;;;;;;;5.95;3.20;;;;;;;;;;5024284;28;100173;-74
2022/01/28 00:51:02;;;;;;;6.75;3.13;;;;;;;;;;5002639;28;101246;-75
2022/01/28 00:53:29;;;;;;;6.60;2.92;;;;;;;;;;5026980;28;102955;-74
2022/01/28 00:55:57;;;;;;;6.78;3.55;;;;;;;;;;5008982;28;101787;-74
2022/01/28 00:58:24;;;;;;;7.25;3.60;;;;;;;;;;4995068;28;101543;-74
2022/01/28 01:00:53;;;;;;;6.55;3.55;;;;;;;;;;4986693;28;101275;-76
2022/01/28 01:03:23;;;;;;;5.20;2.78;;;;;;;;;;4998194;28;100633;-74
2022/01/28 01:05:49;;;;;;;6.10;3.15;;;;;;;;;;5032341;28;100818;-74
2022/01/28 01:08:16;;;;;;;6.32;3.28;;;;;;;;;;5015903;28;100100;-74
2022/01/28 01:10:43;;;;;;;7.03;3.53;;;;;;;;;;5019944;28;100064;-74
2022/01/28 01:13:10;;;;;;;7.22;3.75;;;;;;;;;;4997496;28;100177;-74
2022/01/28 01:15:41;;;;;;;7.45;3.47;;;;;;;;;;4996960;28;102052;-73
2022/01/28 01:18:16;;;;;;;8.73;3.60;;;;;;;;;;5028431;28;100085;-74
2022/01/28 01:23:36;;;;;;;7.88;3.38;;;;;;;;;;5012015;28;100701;-74
2022/01/28 01:28:34;;;;;;;6.43;3.30;;;;;;;;;;5001759;28;101255;-75
2022/01/28 01:31:03;;;;;;;6.20;3.10;;;;;;;;;;4978719;28;102291;-75
2022/01/28 01:33:35;;;;;;;6.80;3.03;;;;;;;;;;4994516;28;100883;-75
2022/01/28 01:36:02;;;;;;;5.57;2.58;;;;;;;;;;4979054;28;100589;-75
2022/01/28 01:38:33;;;;;;;5.35;2.92;;;;;;;;;;5012075;28;99977;-75
2022/01/28 01:41:02;;;;;;;6.32;3.05;;;;;;;;;;4995894;28;100080;-76
2022/01/28 01:54:05;;;;;;;6.28;2.92;;;;;;;;;;5011854;28;100837;-74
2022/01/28 01:56:33;;;;;;;5.65;2.95;;;;;;;;;;4995049;28;100842;-74
2022/01/28 01:58:59;;;;;;;5.78;2.60;;;;;;;;;;4981471;28;100229;-74
2022/01/28 02:01:26;;;;;;;4.43;2.30;;;;;;;;;;5012063;28;100247;-74
2022/01/28 02:03:53;;;;;;;3.92;1.98;;;;;;;;;;5011136;28;100257;-73
2022/01/28 02:06:21;;;;;;;5.00;2.42;;;;;;;;;;4976950;28;101691;-74
2022/01/28 02:08:48;;;;;;;4.22;2.30;;;;;;;;;;4977189;28;100093;-74
2022/01/28 02:11:15;;;;;;;4.30;2.13;;;;;;;;;;4993788;28;100208;-73
2022/01/28 02:13:46;;;;;;;5.07;2.33;;;;;;;;;;5012842;28;100145;-74
2022/01/28 02:16:13;;;;;;;4.28;1.80;;;;;;;;;;4993460;28;100596;-73
2022/01/28 02:18:40;;;;;;;4.70;2.38;;;;;;;;;;4993897;28;100264;-74
2022/01/28 02:21:10;;;;;;;5.05;2.20;;;;;;;;;;5011523;28;100110;-74
2022/01/28 02:23:37;;;;;;;3.97;2.00;;;;;;;;;;5010746;28;101185;-75
2022/01/28 02:26:06;;;;;;;3.55;1.88;;;;;;;;;;4993359;28;101721;-73
2022/01/28 02:28:37;;;;;;;4.28;1.70;;;;;;;;;;4982563;28;100274;-73
2022/01/28 02:31:05;;;;;;;2.95;1.58;;;;;;;;;;5031388;28;100202;-73
2022/01/28 02:33:32;;;;;;;3.35;1.70;;;;;;;;;;5012915;28;100232;-74
2022/01/28 02:36:05;;;;;;;4.55;2.22;;;;;;;;;;5012627;28;100739;-74
2022/01/28 02:38:33;;;;;;;3.42;1.70;;;;;;;;;;4999176;28;100233;-74
2022/01/28 02:41:02;;;;;;;3.80;1.70;;;;;;;;;;4996949;28;100123;-73
2022/01/28 02:46:03;;;;;;;3.97;1.60;;;;;;;;;;4993501;28;100654;-73
2022/01/28 02:48:31;;;;;;;;;;;;;;;;;;5016989;28;103694;-73
2022/01/28 02:56:18;;;;;;;3.78;1.90;;;;;;;;;;5014510;28;101910;-73
2022/01/28 02:58:44;;;;;;;5.38;1.83;;;;;;;;;;5005304;28;100147;-74
2022/01/28 03:01:15;;;;;;;4.28;1.85;;;;;;;;;;5011800;28;100064;-73
2022/01/28 03:03:43;;;;;;;3.47;1.52;;;;;;;;;;5010006;28;101476;-74
2022/01/28 03:06:11;;;;;;;3.63;1.85;;;;;;;;;;5003495;28;100662;-73
2022/01/28 03:08:40;;;;;;;5.25;2.25;;;;;;;;;;4992110;28;99913;-74
2022/01/28 03:16:19;;;;;;;5.22;2.00;;;;;;;;;;4994224;28;100535;-74
2022/01/28 03:18:54;;;;;;;4.03;2.20;;;;;;;;;;5011175;28;100163;-75
2022/01/28 03:23:57;;;;;;;3.45;2.00;;;;;;;;;;5001599;28;101330;-74
2022/01/28 03:26:26;;;;;;;4.18;1.65;;;;;;;;;;4994620;28;100635;-74
2022/01/28 03:28:57;;;;;;;5.78;2.22;;;;;;;;;;4993052;28;100104;-74
2022/01/28 03:31:23;;;;;;;4.40;1.95;;;;;;;;;;5010087;28;100110;-75
2022/01/28 03:33:51;;;;;;;5.25;2.10;;;;;;;;;;4975481;28;101463;-76
2022/01/28 03:36:17;;;;;;;5.38;2.05;;;;;;;;;;5002213;28;100605;-74
2022/01/28 03:38:47;;;;;;;6.10;2.10;;;;;;;;;;4993029;28;100230;-74
2022/01/28 03:41:16;;;;;;;3.25;1.48;;;;;;;;;;5010428;28;100205;-74
2022/01/28 03:43:47;;;;;;;3.05;1.70;;;;;;;;;;4984610;28;102804;-74
2022/01/28 03:46:14;;;;;;;3.45;1.88;;;;;;;;;;4997937;28;100643;-74
2022/01/28 03:48:41;;;;;;;3.15;1.50;;;;;;;;;;4995884;28;100233;-74
2022/01/28 03:51:08;;;;;;;4.68;1.90;;;;;;;;;;4983025;28;100124;-75
2022/01/28 03:53:35;;;;;;;3.83;1.98;;;;;;;;;;5026918;28;101282;-75
2022/01/28 03:56:02;;;;;;;4.25;1.85;;;;;;;;;;4995201;28;100696;-75
2022/01/28 03:58:29;;;;;;;3.75;1.67;;;;;;;;;;4996042;28;101750;-75
2022/01/28 04:00:57;;;;;;;4.25;1.90;;;;;;;;;;5033448;28;100115;-75
2022/01/28 04:11:28;;;;;;;3.15;1.50;;;;;;;;;;5016548;28;102054;-75
2022/01/28 04:13:57;;;;;;;4.53;1.63;;;;;;;;;;5017866;28;100187;-75
2022/01/28 04:17:18;;;;;;;2.75;1.33;;;;;;;;;;5016368;28;100832;-75
2022/01/28 04:19:16;;;;;;;4.53;1.30;;;;;;;;;;5014184;28;99957;-74
2022/01/28 04:21:43;;;;;;;4.10;1.60;;;;;;;;;;4996327;28;100108;-75
2022/01/28 04:24:10;;;;;;;4.90;1.48;;;;;;;;;;4995887;28;100387;-76
2022/01/28 04:26:37;;;;;;;3.15;1.20;;;;;;;;;;4995686;28;103223;-75
2022/01/28 04:29:04;;;;;;;4.32;1.60;;;;;;;;;;4996753;28;100079;-75
2022/01/28 04:31:31;;;;;;;4.10;1.30;;;;;;;;;;5014669;28;100065;-75
2022/01/28 04:34:02;;;;;;;4.78;1.75;;;;;;;;;;5013646;28;100160;-76
2022/01/28 04:36:35;;;;;;;3.45;1.40;;;;;;;;;;5013708;28;100686;-75
2022/01/28 04:39:12;;;;;;;3.47;1.60;;;;;;;;;;4995434;28;100208;-75
2022/01/28 04:44:19;;;;;;;4.13;1.50;;;;;;;;;;4980850;28;100912;-75
2022/01/28 04:47:00;;;;;;;4.75;1.65;;;;;;;;;;5013393;28;100629;-75
2022/01/28 04:57:38;;;;;;;5.35;1.48;;;;;;;;;;4998538;28;100594;-74
2022/01/28 05:00:27;;;;;;;2.72;1.23;;;;;;;;;;4980656;28;100092;-74
2022/01/28 05:09:37;;;;;;;4.65;1.50;;;;;;;;;;5033245;28;100573;-74
2022/01/28 05:27:44;;;;;;;2.22;0.98;;;;;;;;;;5014414;28;100741;-74
2022/01/28 05:30:12;;;;;;;4.72;1.50;;;;;;;;;;5018396;28;101410;-76
2022/01/28 05:32:38;;;;;;;3.30;1.20;;;;;;;;;;5032808;28;100081;-76
2022/01/28 05:35:06;;;;;;;2.58;1.10;;;;;;;;;;5033563;28;100039;-75
2022/01/28 05:37:33;;;;;;;2.85;1.30;;;;;;;;;;5024936;28;103008;-76
2022/01/28 05:40:00;;;;;;;4.13;1.75;;;;;;;;;;4994894;28;100534;-74
2022/01/28 05:42:26;;;;;;;2.78;1.58;;;;;;;;;;4978441;28;102258;-75
2022/01/28 05:44:53;;;;;;;3.60;1.17;;;;;;;;;;4995446;28;99989;-75
2022/01/28 05:47:21;;;;;;;4.22;1.67;;;;;;;;;;5012544;28;100411;-76
2022/01/28 05:49:48;;;;;;;2.75;1.27;;;;;;;;;;5026788;28;101236;-74
2022/01/28 05:52:15;;;;;;;3.10;1.38;;;;;;;;;;5015363;28;100176;-74
2022/01/28 05:54:42;;;;;;;5.47;1.30;;;;;;;;;;5014876;28;100087;-75
2022/01/28 05:57:08;;;;;;;2.28;1.08;;;;;;;;;;5032314;28;100277;-74
2022/01/28 05:59:35;;;;;;;5.32;1.60;;;;;;;;;;5011351;28;101834;-77
2022/01/28 06:02:02;;;;;;;2.90;1.45;;;;;;;;;;5011092;28;101533;-75
2022/01/28 06:04:29;;;;;;;4.60;1.30;;;;;;;;;;5011803;28;99980;-74
2022/01/28 06:07:02;;;;;;;4.63;1.63;;;;;;;;;;5011019;28;100209;-75
2022/01/28 06:09:40;;;;;;;2.67;1.27;;;;;;;;;;4996607;28;100553;-75
2022/01/28 06:12:08;;;;;;;1.88;1.00;;;;;;;;;;4994789;28;100057;-73
2022/01/28 06:14:35;;;;;;;2.25;1.25;;;;;;;;;;5012547;28;99997;-74
2022/01/28 06:17:02;;;;;;;3.20;1.20;;;;;;;;;;5010824;28;101638;-74
2022/01/28 06:19:28;;;;;;;3.75;2.00;;;;;;;;;;4994210;28;103043;-74
2022/01/28 06:21:55;;;;;;;2.78;1.23;;;;;;;;;;5010462;28;100188;-74
2022/01/28 06:24:22;;;;;;;2.22;1.17;;;;;;;;;;5011304;28;100199;-74
2022/01/28 06:26:49;;;;;;;3.15;1.40;;;;;;;;;;5010700;28;100268;-74
2022/01/28 06:29:16;;;;;;;2.47;1.10;;;;;;;;;;4993626;28;100689;-74
2022/01/28 06:31:43;;;;;;;4.93;1.48;;;;;;;;;;5012112;28;100246;-74
2022/01/28 06:34:10;;;;;;;4.25;1.70;;;;;;;;;;4994670;28;100203;-74
2022/01/28 06:36:37;;;;;;;4.30;1.30;;;;;;;;;;4994045;28;100204;-75
2022/01/28 06:39:04;;;;;;;3.80;1.50;;;;;;;;;;5010880;28;101443;-75
2022/01/28 06:41:31;;;;;;;2.33;1.20;;;;;;;;;;5010980;28;100517;-75
2022/01/28 06:44:00;;;;;;;3.42;1.10;;;;;;;;;;4994657;28;100099;-75
2022/01/28 06:46:27;;;;;;;3.03;1.35;;;;;;;;;;5011166;28;100236;-75
2022/01/28 06:48:53;;;;;;;3.13;1.20;;;;;;;;;;4993979;28;100671;-75
2022/01/28 06:51:21;;;;;;;3.08;1.23;;;;;;;;;;4994389;28;100020;-75
2022/01/28 06:53:47;;;;;;;3.17;1.23;;;;;;;;;;5011277;28;100084;-75
2022/01/28 06:56:14;;;;;;;5.30;1.13;;;;;;;;;;5015176;28;100752;-73
2022/01/28 06:58:41;;;;;;;3.40;1.02;;;;;;;;;;5000198;28;100856;-74
2022/01/28 07:01:09;;;;;;;3.83;1.13;;;;;;;;;;5017333;28;100159;-74
2022/01/28 07:03:36;;;;;;;4.07;0.90;;;;;;;;;;5036036;28;100094;-74
2022/01/28 07:06:03;;;;;;;1.65;0.80;;;;;;;;;;5034999;28;101469;-74
2022/01/28 07:08:30;;;;;;;2.22;0.85;;;;;;;;;;5016979;28;100729;-74
2022/01/28 07:10:57;;;;;;;7.03;1.10;;;;;;;;;;5017191;28;100058;-74
2022/01/28 07:13:27;;;;;;;2.05;0.80;;;;;;;;;;5017663;28;100084;-75
2022/01/28 07:16:46;;;;;;;4.05;1.00;;;;;;;;;;4983568;28;100624;-75
2022/01/28 07:19:13;;;;;;;4.78;1.17;;;;;;;;;;5034599;28;100870;-74
2022/01/28 07:21:40;;;;;;;3.70;1.00;;;;;;;;;;5035154;28;100244;-75
2022/01/28 07:24:07;;;;;;;5.60;0.95;;;;;;;;;;5017482;28;100190;-75
2022/01/28 07:26:34;;;;;;;2.55;0.93;;;;;;;;;;5016658;28;101326;-75
2022/01/28 07:29:02;;;;;;;2.95;0.98;;;;;;;;;;5035332;28;101077;-75
2022/01/28 07:31:32;;;;;;;2.80;1.10;;;;;;;;;;4984209;28;100037;-74
2022/01/28 07:33:59;;;;;;;3.33;0.82;;;;;;;;;;5000813;28;100092;-74
2022/01/28 07:36:26;;;;;;;2.33;0.90;;;;;;;;;;5016014;28;101029;-75
2022/01/28 07:38:53;;;;;;;4.40;1.10;;;;;;;;;;5034732;28;102378;-75
2022/01/28 07:41:19;;;;;;;3.92;1.05;;;;;;;;;;5016769;28;99852;-73
2022/01/28 07:43:48;;;;;;;4.68;1.20;;;;;;;;;;5034908;28;100952;-75
2022/01/28 07:46:15;;;;;;;3.13;0.90;;;;;;;;;;5034540;28;100538;-75
2022/01/28 07:48:42;;;;;;;4.18;1.30;;;;;;;;;;5034221;28;100688;-75
2022/01/28 07:51:08;;;;;;;1.65;1.00;;;;;;;;;;5030062;28;100087;-75
2022/01/28 07:53:35;;;;;;;2.28;0.98;;;;;;;;;;4997214;28;100163;-75
2022/01/28 07:56:05;;;;;;;2.22;1.00;;;;;;;;;;5013821;28;100440;-75
2022/01/28 07:58:31;;;;;;;4.95;1.08;;;;;;;;;;4996052;28;100787;-74
2022/01/28 08:00:58;;;;;;;3.58;1.00;;;;;;;;;;4996317;28;100176;-75
2022/01/28 08:03:25;;;;;;;5.22;1.13;;;;;;;;;;5014384;28;99987;-75
2022/01/28 08:05:52;;;;;;;1.95;0.80;;;;;;;;;;5012704;28;102421;-74
2022/01/28 08:08:21;;;;;;;1.67;0.93;;;;;;;;;;4995842;28;101847;-74
2022/01/28 08:10:48;;;;;;;5.60;1.10;;;;;;;;;;5014334;28;100061;-75
2022/01/28 08:13:15;;;;;;;4.32;1.10;;;;;;;;;;4996731;28;100244;-75
2022/01/28 08:15:42;;;;;;;3.33;1.10;;;;;;;;;;4996427;28;100328;-76
2022/01/28 08:18:09;;;;;;;2.67;1.02;;;;;;;;;;4995953;28;103091;-76
2022/01/28 08:20:36;;;;;;;3.20;1.15;;;;;;;;;;4996296;28;100212;-76
2022/01/28 08:23:03;;;;;;;2.38;1.05;;;;;;;;;;4996559;28;100005;-77
2022/01/28 08:25:32;;;;;;;2.42;1.00;;;;;;;;;;4997909;28;100167;-76
2022/01/28 08:27:59;;;;;;;4.72;0.98;;;;;;;;;;4999068;28;101084;-74
2022/01/28 08:30:26;;;;;;;2.92;1.23;;;;;;;;;;4992358;28;100181;-74
2022/01/28 08:32:53;;;;;;;3.30;0.88;;;;;;;;;;4979540;28;100130;-75
2022/01/28 08:35:28;;;;;;;2.75;1.08;;;;;;;;;;5001349;28;100225;-75
2022/01/28 08:37:56;;;;;;;7.07;1.30;;;;;;;;;;4982171;28;101837;-76
2022/01/28 08:40:24;;;;;;;4.88;1.38;;;;;;;;;;4997020;28;100296;-76
2022/01/28 08:42:50;;;;;;;3.67;1.10;;;;;;;;;;4979807;28;99977;-76
2022/01/28 08:45:17;;;;;;;2.83;1.05;;;;;;;;;;4999609;28;100319;-77
2022/01/28 08:47:44;;;;;;;4.50;1.17;;;;;;;;;;5006585;28;100574;-77
2022/01/28 08:50:17;;;;;;;4.50;1.23;;;;;;;;;;5007135;28;100273;-77
2022/01/28 08:52:46;;;;;;;3.17;1.10;;;;;;;;;;5021725;28;100111;-78
2022/01/28 08:55:14;;;;;;;3.60;1.05;;;;;;;;;;5007223;28;100496;-76
2022/01/28 08:57:43;;;;;;;3.10;0.98;;;;;;;;;;4981234;28;101623;-76
2022/01/28 09:00:14;;;;;;;6.13;1.45;;;;;;;;;;5011066;28;101128;-77
2022/01/28 09:02:41;;;;;;;6.70;1.30;;;;;;;;;;5017176;28;100215;-77
2022/01/28 09:05:08;;;;;;;4.00;1.10;;;;;;;;;;5009884;28;101363;-78
2022/01/28 09:07:35;;;;;;;4.05;1.00;;;;;;;;;;4980721;28;101185;-77
2022/01/28 09:10:10;;;;;;;3.75;1.30;;;;;;;;;;5015370;28;100201;-77
2022/01/28 09:12:49;;;;;;;2.08;1.30;;;;;;;;;;5006757;28;100174;-76
2022/01/28 09:15:16;;;;;;;4.13;1.20;;;;;;;;;;5030899;28;100243;-75
2022/01/28 09:17:56;;;;;;;2.75;1.00;;;;;;;;;;4999059;28;100597;-76
2022/01/28 09:20:27;;;;;;;4.05;1.27;;;;;;;;;;5016870;28;100339;-77
2022/01/28 09:22:55;;;;;;;3.53;1.10;;;;;;;;;;4986442;28;105784;-77
2022/01/28 09:25:22;;;;;;;2.92;1.10;;;;;;;;;;5003850;28;100841;-76
2022/01/28 09:27:48;;;;;;;2.60;0.90;;;;;;;;;;5020050;28;102491;-77
2022/01/28 09:30:15;;;;;;;5.88;1.40;;;;;;;;;;4999326;28;100291;-77
2022/01/28 09:32:42;;;;;;;3.58;1.48;;;;;;;;;;5004935;28;100180;-77
2022/01/28 09:35:09;;;;;;;3.75;1.13;;;;;;;;;;5023515;28;100289;-77
2022/01/28 09:37:36;;;;;;;2.50;1.23;;;;;;;;;;5020268;28;100869;-76
2022/01/28 09:40:06;;;;;;;4.50;0.98;;;;;;;;;;5001851;28;100196;-77
2022/01/28 09:42:41;;;;;;;6.22;1.33;;;;;;;;;;4988461;28;100448;-76
2022/01/28 09:45:09;;;;;;;2.72;0.95;;;;;;;;;;5022000;28;100869;-76
2022/01/28 09:47:40;;;;;;;4.07;1.38;;;;;;;;;;5021009;28;101182;-77
2022/01/28 09:50:10;;;;;;;3.45;1.20;;;;;;;;;;5004923;28;100135;-78
2022/01/28 09:52:37;;;;;;;4.80;1.40;;;;;;;;;;5019787;28;101261;-75
2022/01/28 09:55:04;;;;;;;3.20;0.98;;;;;;;;;;5019457;28;100157;-78
2022/01/28 09:57:32;;;;;;;2.17;1.10;;;;;;;;;;5018688;28;102076;-77
2022/01/28 09:59:59;;;;;;;2.75;1.10;;;;;;;;;;5005488;28;100160;-76
2022/01/28 10:02:45;;;;;;;3.35;1.30;;;;;;;;;;5022235;28;100088;-75
2022/01/28 10:05:25;;;;;;;3.50;1.00;;;;;;;;;;5030983;28;100172;-76
2022/01/28 10:08:12;;;;;;;2.58;1.05;;;;;;;;;;5014083;28;100275;-76
2022/01/28 10:10:45;;;;;;;7.15;1.38;;;;;;;;;;5029651;28;100769;-76
2022/01/28 10:13:16;;;;;;;4.07;1.23;;;;;;;;;;5013495;28;100119;-76
2022/01/28 10:15:57;;;;;;;4.45;1.50;;;;;;;;;;5003142;28;100771;-77
2022/01/28 10:18:49;;;;;;;4.10;1.20;;;;;;;;;;4997401;28;103310;-77
2022/01/28 10:21:20;;;;;;;5.18;1.27;;;;;;;;;;5025670;28;100133;-76
2022/01/28 10:24:04;;;;;;;3.67;1.50;;;;;;;;;;5012089;28;100057;-76
2022/01/28 10:26:30;;;;;;;5.63;1.50;;;;;;;;;;5011202;28;100175;-77
2022/01/28 10:28:58;;;;;;;2.00;1.10;;;;;;;;;;5014802;28;101922;-76
2022/01/28 10:31:39;;;;;;;3.20;1.40;;;;;;;;;;5000540;28;100318;-76
2022/01/28 10:34:27;;;;;;;3.33;1.50;;;;;;;;;;5013033;28;100463;-76
2022/01/28 10:37:12;;;;;;;3.90;1.42;;;;;;;;;;5008707;28;100349;-77
2022/01/28 10:39:42;;;;;;;4.95;1.50;;;;;;;;;;5017320;28;101601;-77
2022/01/28 10:42:09;;;;;;;5.00;1.65;;;;;;;;;;5028512;28;100012;-76
2022/01/28 10:44:54;;;;;;;4.15;1.70;;;;;;;;;;5011126;28;100554;-77
2022/01/28 10:47:34;;;;;;;4.78;1.70;;;;;;;;;;4978764;28;100546;-76
2022/01/28 10:50:27;;;;;;;5.13;1.50;;;;;;;;;;5013948;28;100588;-76
2022/01/28 10:53:11;;;;;;;2.67;1.42;;;;;;;;;;4993901;28;100268;-76
2022/01/28 10:55:45;;;;;;;5.20;1.70;;;;;;;;;;4976874;28;100171;-76
2022/01/28 10:58:14;;;;;;;3.80;1.60;;;;;;;;;;4995853;28;100730;-77
2022/01/28 11:00:48;;;;;;;5.00;1.38;;;;;;;;;;4978781;28;102986;-76
2022/01/28 11:03:16;;;;;;;;;;;;;;;;;;5004527;28;100143;-76
2022/01/28 11:05:44;;;;;;;3.17;1.65;;;;;;;;;;4997677;28;100262;-76
2022/01/28 11:08:12;;;;;;;5.55;2.00;;;;;;;;;;5011571;28;100214;-77
2022/01/28 11:10:40;;;;;;;2.92;1.40;;;;;;;;;;4977889;28;100505;-78
2022/01/28 11:13:07;;;;;;;5.57;1.60;;;;;;;;;;4976678;28;100270;-76
2022/01/28 11:15:36;;;;;;;7.40;1.70;;;;;;;;;;4981831;28;100037;-76
2022/01/28 11:18:04;;;;;;;7.10;2.05;;;;;;;;;;4975224;28;101903;-77
2022/01/28 11:20:50;;;;;;;6.97;1.65;;;;;;;;;;5001958;28;100746;-77
2022/01/28 11:23:34;;;;;;;7.13;1.75;;;;;;;;;;5007263;28;100260;-75
2022/01/28 11:26:13;;;;;;;4.13;1.80;;;;;;;;;;4985156;28;102720;-76
2022/01/28 11:28:47;;;;;;;4.57;1.80;;;;;;;;;;5029390;28;100310;-76
2022/01/28 11:31:14;;;;;;;5.72;2.05;;;;;;;;;;5001099;28;102246;-76
2022/01/28 11:33:47;;;;;;;3.08;1.58;;;;;;;;;;5030189;28;101985;-76
2022/01/28 11:36:30;;;;;;;4.40;1.30;;;;;;;;;;5012421;28;100057;-77
2022/01/28 11:38:57;;;;;;;5.35;1.75;;;;;;;;;;4994926;28;103321;-76
2022/01/28 11:41:26;;;;;;;5.85;1.85;;;;;;;;;;4978400;28;100614;-77
2022/01/28 11:43:55;;;;;;;3.97;2.08;;;;;;;;;;4997035;28;100286;-77
2022/01/28 11:46:31;;;;;;;5.35;1.38;;;;;;;;;;4979559;28;100090;-77
2022/01/28 11:48:58;;;;;;;4.10;1.60;;;;;;;;;;5012657;28;100830;-77
2022/01/28 11:51:35;;;;;;;5.75;1.70;;;;;;;;;;5013248;28;100554;-76
2022/01/28 11:54:07;;;;;;;4.85;1.75;;;;;;;;;;4995694;28;100254;-77
2022/01/28 11:56:37;;;;;;;4.22;1.25;;;;;;;;;;4995009;28;100075;-76
2022/01/28 11:59:05;;;;;;;4.85;0.80;;;;;;;;;;4992635;28;100917;-76
2022/01/28 12:01:38;;;;;;;4.78;0.90;;;;;;;;;;4978571;28;100593;-76
2022/01/28 12:04:24;;;;;;;4.80;1.20;;;;;;;;;;5017081;28;100701;-76
2022/01/28 12:07:18;;;;;;;2.05;1.13;;;;;;;;;;5015537;28;100299;-75
2022/01/28 12:09:52;;;;;;;2.33;1.10;;;;;;;;;;4992759;28;100263;-76
2022/01/28 12:12:38;;;;;;;4.32;1.00;;;;;;;;;;4977373;28;101490;-75
2022/01/28 12:15:10;;;;;;;4.63;1.10;;;;;;;;;;4976643;28;100239;-75
2022/01/28 12:17:49;;;;;;;3.30;1.00;;;;;;;;;;5011442;28;100052;-76
2022/01/28 12:20:42;;;;;;;3.67;0.88;;;;;;;;;;4988137;28;100937;-76
2022/01/28 12:23:09;;;;;;;2.47;0.90;;;;;;;;;;4983414;28;102910;-75
2022/01/28 12:25:36;;;;;;;5.18;1.63;;;;;;;;;;5014670;28;100668;-75
2022/01/28 12:28:13;;;;;;;4.32;0.90;;;;;;;;;;4995283;28;100424;-75
2022/01/28 12:31:04;;;;;;;5.25;1.00;;;;;;;;;;4960488;28;100836;-76
2022/01/28 12:33:47;;;;;;;2.78;1.20;;;;;;;;;;4987718;28;103405;-76
2022/01/28 12:36:21;;;;;;;5.97;1.17;;;;;;;;;;4978229;28;100530;-75
2022/01/28 12:42:03;;;;;;;3.00;1.02;;;;;;;;;;5007838;28;100639;-76
2022/01/28 12:44:31;;;;;;;3.50;1.35;;;;;;;;;;4991293;28;100991;-76
2022/01/28 12:47:06;;;;;;;2.55;1.10;;;;;;;;;;5018788;28;100079;-75
2022/01/28 12:49:34;;;;;;;3.33;1.20;;;;;;;;;;4996392;28;101242;-75
2022/01/28 12:52:05;;;;;;;5.05;1.45;;;;;;;;;;5016055;28;100216;-76
2022/01/28 12:54:33;;;;;;;4.72;1.55;;;;;;;;;;4985638;28;100604;-75
2022/01/28 12:57:00;;;;;;;3.35;1.40;;;;;;;;;;4986186;28;100290;-75
2022/01/28 12:59:27;;;;;;;5.50;1.77;;;;;;;;;;4975552;28;100137;-75
2022/01/28 13:01:54;;;;;;;7.85;2.00;;;;;;;;;;4974413;28;101340;-75
2022/01/28 13:04:24;;;;;;;4.05;1.50;;;;;;;;;;4962665;28;100535;-77
2022/01/28 13:09:23;;;;;;;4.55;1.50;;;;;;;;;;5011961;28;100082;-76
2022/01/28 13:11:51;;;;;;;7.63;1.95;;;;;;;;;;5011040;28;100296;-74
2022/01/28 13:14:27;;;;;;;6.97;1.77;;;;;;;;;;4992769;28;100225;-74
2022/01/28 13:17:01;;;;;;;6.70;1.58;;;;;;;;;;4991537;28;100171;-75
2022/01/28 13:19:28;;;;;;;6.35;2.00;;;;;;;;;;4994662;28;100155;-74
2022/01/28 13:21:56;;;;;;;6.95;1.80;;;;;;;;;;4993260;28;100729;-75
2022/01/28 13:24:27;;;;;;;6.25;1.48;;;;;;;;;;4996031;28;101166;-78
2022/01/28 13:26:54;;;;;;;7.30;1.90;;;;;;;;;;5010969;28;100201;-74
2022/01/28 13:29:32;;;;;;;7.60;1.83;;;;;;;;;;4994926;28;100086;-76
2022/01/28 13:32:09;;;;;;;6.00;1.67;;;;;;;;;;5011683;28;100537;-76
2022/01/28 13:34:49;;;;;;;6.30;1.88;;;;;;;;;;4977923;28;103421;-76
2022/01/28 13:37:31;;;;;;;8.52;2.03;;;;;;;;;;5011060;28;100093;-76
2022/01/28 13:39:58;;;;;;;11.95;1.80;;;;;;;;;;5013088;28;100036;-76
2022/01/28 13:42:25;;;;;;;5.50;1.73;;;;;;;;;;5010551;28;100152;-74
2022/01/28 13:44:52;;;;;;;5.85;2.00;;;;;;;;;;5010548;28;101213;-75
2022/01/28 13:47:19;;;;;;;5.85;1.80;;;;;;;;;;4994317;28;100079;-74
2022/01/28 13:49:46;;;;;;;5.57;1.38;;;;;;;;;;4994406;28;100423;-76
2022/01/28 13:52:18;;;;;;;7.72;2.40;;;;;;;;;;5010467;28;100164;-75
2022/01/28 13:54:45;;;;;;;7.50;2.65;;;;;;;;;;5010945;28;100722;-76
2022/01/28 13:57:12;;;;;;;6.18;2.15;;;;;;;;;;4986639;28;102625;-76
2022/01/28 13:59:42;;;;;;;8.07;1.92;;;;;;;;;;4960286;28;100952;-75
2022/01/28 14:02:16;;;;;;;9.68;2.10;;;;;;;;;;4994111;28;100134;-74
2022/01/28 14:04:46;;;;;;;7.38;2.10;;;;;;;;;;5011111;28;101086;-75
2022/01/28 14:07:13;;;;;;;10.38;1.90;;;;;;;;;;5010546;28;100004;-75
2022/01/28 14:09:54;;;;;;;6.25;1.63;;;;;;;;;;5012488;28;100034;-75
2022/01/28 14:12:47;;;;;;;7.78;1.67;;;;;;;;;;4991334;28;100418;-75
2022/01/28 14:15:42;;;;;;;7.18;2.10;;;;;;;;;;4999978;28;100668;-76
2022/01/28 14:18:09;;;;;;;;;;;;;;;;;;4996813;28;100055;-75
2022/01/28 14:20:36;;;;;;;5.22;1.85;;;;;;;;;;5010273;28;100151;-77
2022/01/28 14:23:05;;;;;;;12.65;2.33;;;;;;;;;;5010078;28;100245;-77
2022/01/28 14:25:42;;;;;;;14.52;1.92;;;;;;;;;;5008137;28;102036;-77
2022/01/28 14:30:54;;;;;;;6.30;1.48;;;;;;;;;;4975456;28;100064;-76
2022/01/28 14:33:25;;;;;;;9.93;2.40;;;;;;;;;;5026017;28;100814;-76
2022/01/28 14:36:00;;;;;;;7.53;1.75;;;;;;;;;;4999679;28;100168;-76
2022/01/28 14:38:29;;;;;;;7.70;2.10;;;;;;;;;;4974423;28;100137;-76
2022/01/28 14:40:56;;;;;;;6.82;1.73;;;;;;;;;;4989227;28;102096;-76
2022/01/28 14:43:23;;;;;;;8.35;2.47;;;;;;;;;;4989957;28;100815;-77
2022/01/28 14:45:49;;;;;;;7.15;1.73;;;;;;;;;;4990407;28;101379;-76
2022/01/28 14:48:20;;;;;;;8.07;1.80;;;;;;;;;;4990698;28;100224;-75
2022/01/28 14:50:48;;;;;;;5.95;1.98;;;;;;;;;;4989742;28;100673;-76
2022/01/28 14:53:15;;;;;;;9.30;2.40;;;;;;;;;;4972948;28;100278;-77
2022/01/28 14:55:43;;;;;;;8.63;2.00;;;;;;;;;;4989274;28;101895;-76
2022/01/28 14:58:10;;;;;;;9.40;1.80;;;;;;;;;;4991295;28;100042;-76
2022/01/28 15:00:37;;;;;;;7.10;2.35;;;;;;;;;;4972907;28;100201;-76
2022/01/28 15:03:05;;;;;;;8.38;2.08;;;;;;;;;;4990797;28;100303;-76
2022/01/28 15:05:34;;;;;;;5.85;2.00;;;;;;;;;;5022130;28;101171;-76
2022/01/28 15:08:08;;;;;;;11.40;2.15;;;;;;;;;;5009566;28;100049;-75
2022/01/28 15:10:35;;;;;;;8.23;1.85;;;;;;;;;;4977864;28;102116;-76
2022/01/28 15:13:02;;;;;;;8.15;2.40;;;;;;;;;;5008955;28;102559;-76
2022/01/28 15:15:29;;;;;;;11.18;2.30;;;;;;;;;;5011042;28;101364;-75
2022/01/28 15:17:56;;;;;;;11.73;2.45;;;;;;;;;;5014018;28;100224;-76
2022/01/28 15:20:24;;;;;;;8.55;2.42;;;;;;;;;;5014612;28;100168;-76
2022/01/28 15:22:54;;;;;;;9.73;2.35;;;;;;;;;;4996485;28;100293;-76
2022/01/28 15:25:24;;;;;;;8.60;2.92;;;;;;;;;;5013619;28;100582;-76
2022/01/28 15:27:52;;;;;;;10.68;2.75;;;;;;;;;;5008734;28;100442;-76
2022/01/28 15:38:21;;;;;;;6.18;1.95;;;;;;;;;;4977140;28;100202;-77
2022/01/28 15:40:48;;;;;;;7.80;1.90;;;;;;;;;;4996861;28;100537;-76
2022/01/28 15:43:14;;;;;;;6.55;2.15;;;;;;;;;;4991579;28;101681;-76
2022/01/28 15:45:46;;;;;;;5.72;2.17;;;;;;;;;;4993446;28;100655;-76
2022/01/28 15:48:14;;;;;;;8.52;2.15;;;;;;;;;;4997316;28;99981;-75
2022/01/28 15:50:42;;;;;;;10.35;2.47;;;;;;;;;;4992690;28;100439;-76
2022/01/28 15:53:09;;;;;;;11.15;2.75;;;;;;;;;;4993939;28;101213;-76
2022/01/28 15:55:35;;;;;;;8.55;2.80;;;;;;;;;;5009011;28;101904;-76
2022/01/28 15:58:02;;;;;;;10.10;2.30;;;;;;;;;;4995264;28;100005;-77
2022/01/28 16:00:29;;;;;;;5.22;2.10;;;;;;;;;;4977293;28;100998;-76
2022/01/28 16:02:56;;;;;;;9.68;2.33;;;;;;;;;;4965146;28;102579;-76
2022/01/28 16:05:23;;;;;;;13.65;2.67;;;;;;;;;;4997312;28;100800;-76
2022/01/28 16:07:50;;;;;;;11.23;2.60;;;;;;;;;;5009308;28;100747;-76
2022/01/28 16:10:21;;;;;;;6.43;2.03;;;;;;;;;;5011638;28;102985;-76
2022/01/28 16:15:39;;;;;;;6.55;2.72;;;;;;;;;;5005223;28;100628;-76
2022/01/28 16:18:10;;;;;;;11.10;3.13;;;;;;;;;;5012150;28;100037;-76
2022/01/28 16:20:38;;;;;;;12.00;3.15;;;;;;;;;;5013620;28;100125;-76
2022/01/28 16:23:05;;;;;;;7.63;2.95;;;;;;;;;;5012603;28;100277;-76
2022/01/28 16:30:54;;;;;;;12.43;3.47;;;;;;;;;;4989955;28;100516;-75
2022/01/28 16:48:05;;;;;;;11.02;2.50;;;;;;;;;;4995061;28;99998;-76
2022/01/28 16:50:33;;;;;;;11.85;2.70;;;;;;;;;;5002191;28;100132;-76
2022/01/28 16:53:00;;;;;;;10.73;2.78;;;;;;;;;;4982308;28;102249;-76
2022/01/28 16:55:28;;;;;;;9.95;3.15;;;;;;;;;;5004857;28;100656;-76
2022/01/28 16:57:54;;;;;;;7.18;2.72;;;;;;;;;;5001734;28;100263;-77
2022/01/28 17:00:22;;;;;;;14.43;3.88;;;;;;;;;;5021106;28;100331;-77
2022/01/28 17:02:50;;;;;;;13.48;3.53;;;;;;;;;;5001516;28;100521;-77
2022/01/28 17:05:18;;;;;;;12.30;3.20;;;;;;;;;;4999696;28;100576;-77
2022/01/28 17:07:45;;;;;;;14.30;3.42;;;;;;;;;;5002977;28;100198;-76
2022/01/28 17:10:32;;;;;;;16.02;4.05;;;;;;;;;;4994569;28;100615;-78